sensor_id;sensor_type;location;lat;lon;timestamp;temperature;humidity
2409;DHT22;8463;48.094;7.970;2022-10-16T00:01:34;15.00;73.00
2409;DHT22;8463;48.094;7.970;2022-10-16T00:04:01;15.00;73.20
2409;DHT22;8463;48.094;7.970;2022-10-16T00:06:28;15.00;73.10
2409;DHT22;8463;48.094;7.970;2022-10-16T00:08:53;15.00;73.20
2409;DHT22;8463;48.094;7.970;2022-10-16T00:11:30;15.00;73.60
2409;DHT22;8463;48.094;7.970;2022-10-16T00:14:00;15.10;73.70
2409;DHT22;8463;48.094;7.970;2022-10-16T00:16:27;15.10;73.70
2409;DHT22;8463;48.094;7.970;2022-10-16T00:18:54;15.10;73.80
2409;DHT22;8463;48.094;7.970;2022-10-16T00:21:22;15.00;73.70
2409;DHT22;8463;48.094;7.970;2022-10-16T00:24:02;15.00;73.70
2409;DHT22;8463;48.094;7.970;2022-10-16T00:26:31;15.00;74.00
2409;DHT22;8463;48.094;7.970;2022-10-16T00:28:57;15.00;74.10
2409;DHT22;8463;48.094;7.970;2022-10-16T00:31:22;15.00;74.10
2409;DHT22;8463;48.094;7.970;2022-10-16T00:33:49;15.00;73.80
2409;DHT22;8463;48.094;7.970;2022-10-16T00:36:17;15.00;74.10
2409;DHT22;8463;48.094;7.970;2022-10-16T00:38:43;15.00;74.40
2409;DHT22;8463;48.094;7.970;2022-10-16T00:41:16;15.00;74.10
2409;DHT22;8463;48.094;7.970;2022-10-16T00:43:50;14.90;74.50
2409;DHT22;8463;48.094;7.970;2022-10-16T00:48:50;14.90;74.10
2409;DHT22;8463;48.094;7.970;2022-10-16T00:53:49;14.90;73.50
2409;DHT22;8463;48.094;7.970;2022-10-16T00:56:15;14.90;73.60
2409;DHT22;8463;48.094;7.970;2022-10-16T00:58:41;14.90;74.00
2409;DHT22;8463;48.094;7.970;2022-10-16T01:01:07;14.90;74.10
2409;DHT22;8463;48.094;7.970;2022-10-16T01:03:35;14.90;74.30
2409;DHT22;8463;48.094;7.970;2022-10-16T01:06:15;14.90;74.30
2409;DHT22;8463;48.094;7.970;2022-10-16T01:08:57;14.90;74.20
2409;DHT22;8463;48.094;7.970;2022-10-16T01:11:54;14.90;74.50
2409;DHT22;8463;48.094;7.970;2022-10-16T01:14:54;14.80;74.50
2409;DHT22;8463;48.094;7.970;2022-10-16T01:17:35;14.90;74.10
2409;DHT22;8463;48.094;7.970;2022-10-16T01:28:28;15.00;73.90
2409;DHT22;8463;48.094;7.970;2022-10-16T01:30:58;15.00;74.30
2409;DHT22;8463;48.094;7.970;2022-10-16T01:33:28;15.00;73.60
2409;DHT22;8463;48.094;7.970;2022-10-16T01:35:59;15.00;73.40
2409;DHT22;8463;48.094;7.970;2022-10-16T01:38:33;15.00;73.20
2409;DHT22;8463;48.094;7.970;2022-10-16T01:41:06;15.00;73.80
2409;DHT22;8463;48.094;7.970;2022-10-16T01:43:40;15.00;73.40
2409;DHT22;8463;48.094;7.970;2022-10-16T01:46:07;15.00;73.00
2409;DHT22;8463;48.094;7.970;2022-10-16T01:48:34;15.00;73.50
2409;DHT22;8463;48.094;7.970;2022-10-16T01:51:07;15.00;72.90
2409;DHT22;8463;48.094;7.970;2022-10-16T01:53:34;15.00;72.70
2409;DHT22;8463;48.094;7.970;2022-10-16T01:56:00;15.00;73.20
2409;DHT22;8463;48.094;7.970;2022-10-16T01:58:28;15.00;73.20
2409;DHT22;8463;48.094;7.970;2022-10-16T02:00:59;15.00;73.10
2409;DHT22;8463;48.094;7.970;2022-10-16T02:03:25;15.00;72.70
2409;DHT22;8463;48.094;7.970;2022-10-16T02:05:52;15.00;72.80
2409;DHT22;8463;48.094;7.970;2022-10-16T02:08:19;15.00;72.20
2409;DHT22;8463;48.094;7.970;2022-10-16T02:10:46;14.90;72.20
2409;DHT22;8463;48.094;7.970;2022-10-16T02:13:26;14.90;72.00
2409;DHT22;8463;48.094;7.970;2022-10-16T02:15:53;14.90;72.50
2409;DHT22;8463;48.094;7.970;2022-10-16T02:18:18;14.80;72.80
2409;DHT22;8463;48.094;7.970;2022-10-16T02:25:59;14.80;73.20
2409;DHT22;8463;48.094;7.970;2022-10-16T02:28:34;14.80;73.00
2409;DHT22;8463;48.094;7.970;2022-10-16T02:31:04;14.80;73.10
2409;DHT22;8463;48.094;7.970;2022-10-16T02:33:33;14.80;72.90
2409;DHT22;8463;48.094;7.970;2022-10-16T02:36:01;14.90;72.80
2409;DHT22;8463;48.094;7.970;2022-10-16T02:38:27;14.80;72.50
2409;DHT22;8463;48.094;7.970;2022-10-16T02:40:53;14.70;72.50
2409;DHT22;8463;48.094;7.970;2022-10-16T02:43:19;14.70;72.90
2409;DHT22;8463;48.094;7.970;2022-10-16T02:45:45;14.70;72.80
2409;DHT22;8463;48.094;7.970;2022-10-16T02:48:11;14.70;73.20
2409;DHT22;8463;48.094;7.970;2022-10-16T02:50:36;14.70;73.30
2409;DHT22;8463;48.094;7.970;2022-10-16T02:53:02;14.70;73.50
2409;DHT22;8463;48.094;7.970;2022-10-16T02:55:27;14.70;73.70
2409;DHT22;8463;48.094;7.970;2022-10-16T02:57:54;14.60;72.90
2409;DHT22;8463;48.094;7.970;2022-10-16T03:00:20;14.60;73.40
2409;DHT22;8463;48.094;7.970;2022-10-16T03:02:46;14.60;73.30
2409;DHT22;8463;48.094;7.970;2022-10-16T03:05:13;14.70;73.40
2409;DHT22;8463;48.094;7.970;2022-10-16T03:07:39;14.60;73.20
2409;DHT22;8463;48.094;7.970;2022-10-16T03:10:05;14.60;72.80
2409;DHT22;8463;48.094;7.970;2022-10-16T03:12:31;14.70;73.40
2409;DHT22;8463;48.094;7.970;2022-10-16T03:14:57;14.70;73.00
2409;DHT22;8463;48.094;7.970;2022-10-16T03:17:23;14.70;72.60
2409;DHT22;8463;48.094;7.970;2022-10-16T03:19:49;14.70;73.00
2409;DHT22;8463;48.094;7.970;2022-10-16T03:22:14;14.60;72.70
2409;DHT22;8463;48.094;7.970;2022-10-16T03:24:40;14.70;72.80
2409;DHT22;8463;48.094;7.970;2022-10-16T03:27:06;14.70;73.30
2409;DHT22;8463;48.094;7.970;2022-10-16T03:29:32;14.70;73.70
2409;DHT22;8463;48.094;7.970;2022-10-16T03:31:58;14.60;73.30
2409;DHT22;8463;48.094;7.970;2022-10-16T03:34:24;14.60;73.40
2409;DHT22;8463;48.094;7.970;2022-10-16T03:36:51;14.70;74.00
2409;DHT22;8463;48.094;7.970;2022-10-16T03:39:16;14.70;73.40
2409;DHT22;8463;48.094;7.970;2022-10-16T03:41:42;14.70;73.40
2409;DHT22;8463;48.094;7.970;2022-10-16T03:44:07;14.70;73.60
2409;DHT22;8463;48.094;7.970;2022-10-16T03:46:33;14.70;72.90
2409;DHT22;8463;48.094;7.970;2022-10-16T03:48:59;14.70;73.00
2409;DHT22;8463;48.094;7.970;2022-10-16T03:51:24;14.70;72.80
2409;DHT22;8463;48.094;7.970;2022-10-16T03:53:50;14.70;72.80
2409;DHT22;8463;48.094;7.970;2022-10-16T03:56:16;14.70;73.20
2409;DHT22;8463;48.094;7.970;2022-10-16T03:58:41;14.70;73.00
2409;DHT22;8463;48.094;7.970;2022-10-16T04:01:07;14.70;72.70
2409;DHT22;8463;48.094;7.970;2022-10-16T04:03:32;14.70;73.20
2409;DHT22;8463;48.094;7.970;2022-10-16T04:05:58;14.70;72.80
2409;DHT22;8463;48.094;7.970;2022-10-16T04:08:24;14.70;73.20
2409;DHT22;8463;48.094;7.970;2022-10-16T04:10:49;14.70;73.10
2409;DHT22;8463;48.094;7.970;2022-10-16T04:13:15;14.70;73.10
2409;DHT22;8463;48.094;7.970;2022-10-16T04:15:41;14.70;73.00
2409;DHT22;8463;48.094;7.970;2022-10-16T04:18:07;14.70;72.80
2409;DHT22;8463;48.094;7.970;2022-10-16T04:20:33;14.70;73.30
2409;DHT22;8463;48.094;7.970;2022-10-16T04:22:59;14.60;73.40
2409;DHT22;8463;48.094;7.970;2022-10-16T04:25:24;14.60;73.50
2409;DHT22;8463;48.094;7.970;2022-10-16T04:27:52;14.60;73.80
2409;DHT22;8463;48.094;7.970;2022-10-16T04:30:18;14.60;74.00
2409;DHT22;8463;48.094;7.970;2022-10-16T04:32:48;14.60;73.50
2409;DHT22;8463;48.094;7.970;2022-10-16T04:35:14;14.60;74.00
2409;DHT22;8463;48.094;7.970;2022-10-16T04:37:39;14.70;73.90
2409;DHT22;8463;48.094;7.970;2022-10-16T04:40:05;14.70;73.50
2409;DHT22;8463;48.094;7.970;2022-10-16T04:42:31;14.70;73.90
2409;DHT22;8463;48.094;7.970;2022-10-16T04:44:56;14.70;73.20
2409;DHT22;8463;48.094;7.970;2022-10-16T04:47:22;14.70;73.60
2409;DHT22;8463;48.094;7.970;2022-10-16T04:49:48;14.70;73.10
2409;DHT22;8463;48.094;7.970;2022-10-16T04:52:13;14.70;73.50
2409;DHT22;8463;48.094;7.970;2022-10-16T04:54:39;14.70;73.50
2409;DHT22;8463;48.094;7.970;2022-10-16T04:57:04;14.70;73.50
2409;DHT22;8463;48.094;7.970;2022-10-16T04:59:30;14.70;73.50
2409;DHT22;8463;48.094;7.970;2022-10-16T05:01:56;14.70;73.40
2409;DHT22;8463;48.094;7.970;2022-10-16T05:04:21;14.60;72.80
2409;DHT22;8463;48.094;7.970;2022-10-16T05:06:47;14.70;73.40
2409;DHT22;8463;48.094;7.970;2022-10-16T05:09:13;14.60;73.00
2409;DHT22;8463;48.094;7.970;2022-10-16T05:11:39;14.60;73.50
2409;DHT22;8463;48.094;7.970;2022-10-16T05:14:05;14.60;73.20
2409;DHT22;8463;48.094;7.970;2022-10-16T05:16:30;14.60;73.20
2409;DHT22;8463;48.094;7.970;2022-10-16T05:18:56;14.60;73.60
2409;DHT22;8463;48.094;7.970;2022-10-16T05:21:22;14.70;73.20
2409;DHT22;8463;48.094;7.970;2022-10-16T05:23:48;14.60;73.50
2409;DHT22;8463;48.094;7.970;2022-10-16T05:26:13;14.60;73.00
2409;DHT22;8463;48.094;7.970;2022-10-16T05:28:39;14.70;73.50
2409;DHT22;8463;48.094;7.970;2022-10-16T05:31:09;14.70;73.10
2409;DHT22;8463;48.094;7.970;2022-10-16T05:33:34;14.70;72.90
2409;DHT22;8463;48.094;7.970;2022-10-16T05:36:02;14.60;73.40
2409;DHT22;8463;48.094;7.970;2022-10-16T05:38:28;14.60;73.20
2409;DHT22;8463;48.094;7.970;2022-10-16T05:40:54;14.70;72.80
2409;DHT22;8463;48.094;7.970;2022-10-16T05:43:20;14.70;73.20
2409;DHT22;8463;48.094;7.970;2022-10-16T05:46:00;14.70;72.70
2409;DHT22;8463;48.094;7.970;2022-10-16T05:48:26;14.70;72.60
2409;DHT22;8463;48.094;7.970;2022-10-16T05:51:06;14.70;72.80
2409;DHT22;8463;48.094;7.970;2022-10-16T05:53:34;14.70;73.30
2409;DHT22;8463;48.094;7.970;2022-10-16T05:56:00;14.70;73.40
2409;DHT22;8463;48.094;7.970;2022-10-16T05:58:28;14.60;73.20
2409;DHT22;8463;48.094;7.970;2022-10-16T06:00:56;14.60;73.40
2409;DHT22;8463;48.094;7.970;2022-10-16T06:03:22;14.70;73.30
2409;DHT22;8463;48.094;7.970;2022-10-16T06:05:47;14.60;73.30
2409;DHT22;8463;48.094;7.970;2022-10-16T06:08:13;14.60;73.40
2409;DHT22;8463;48.094;7.970;2022-10-16T06:10:39;14.70;73.90
2409;DHT22;8463;48.094;7.970;2022-10-16T06:13:04;14.70;73.50
2409;DHT22;8463;48.094;7.970;2022-10-16T06:15:30;14.70;73.90
2409;DHT22;8463;48.094;7.970;2022-10-16T06:17:55;14.70;73.90
2409;DHT22;8463;48.094;7.970;2022-10-16T06:20:21;14.70;73.70
2409;DHT22;8463;48.094;7.970;2022-10-16T06:22:46;14.80;74.20
2409;DHT22;8463;48.094;7.970;2022-10-16T06:25:12;14.70;73.70
2409;DHT22;8463;48.094;7.970;2022-10-16T06:27:40;14.70;74.20
2409;DHT22;8463;48.094;7.970;2022-10-16T06:30:06;14.80;74.20
2409;DHT22;8463;48.094;7.970;2022-10-16T06:32:32;14.80;74.10
2409;DHT22;8463;48.094;7.970;2022-10-16T06:34:58;14.80;74.10
2409;DHT22;8463;48.094;7.970;2022-10-16T06:37:23;14.80;73.90
2409;DHT22;8463;48.094;7.970;2022-10-16T06:39:50;14.80;73.80
2409;DHT22;8463;48.094;7.970;2022-10-16T06:42:18;14.80;73.40
2409;DHT22;8463;48.094;7.970;2022-10-16T06:44:43;14.80;73.50
2409;DHT22;8463;48.094;7.970;2022-10-16T06:47:09;14.70;73.50
2409;DHT22;8463;48.094;7.970;2022-10-16T06:49:35;14.90;73.70
2409;DHT22;8463;48.094;7.970;2022-10-16T06:52:00;14.90;74.10
2409;DHT22;8463;48.094;7.970;2022-10-16T06:54:27;15.10;75.20
2409;DHT22;8463;48.094;7.970;2022-10-16T06:56:53;15.10;75.60
2409;DHT22;8463;48.094;7.970;2022-10-16T06:59:20;15.10;73.10
2409;DHT22;8463;48.094;7.970;2022-10-16T07:01:46;15.20;72.60
2409;DHT22;8463;48.094;7.970;2022-10-16T07:04:11;15.20;73.00
2409;DHT22;8463;48.094;7.970;2022-10-16T07:06:37;15.10;72.80
2409;DHT22;8463;48.094;7.970;2022-10-16T07:09:05;15.10;72.70
2409;DHT22;8463;48.094;7.970;2022-10-16T07:11:31;15.10;72.90
2409;DHT22;8463;48.094;7.970;2022-10-16T07:13:57;15.00;72.70
2409;DHT22;8463;48.094;7.970;2022-10-16T07:16:28;15.10;73.10
2409;DHT22;8463;48.094;7.970;2022-10-16T07:18:55;15.10;73.60
2409;DHT22;8463;48.094;7.970;2022-10-16T07:21:26;15.10;73.20
2409;DHT22;8463;48.094;7.970;2022-10-16T07:23:52;15.00;73.60
2409;DHT22;8463;48.094;7.970;2022-10-16T07:28:44;15.00;73.80
2409;DHT22;8463;48.094;7.970;2022-10-16T07:31:12;15.10;73.70
2409;DHT22;8463;48.094;7.970;2022-10-16T07:33:39;15.10;73.90
2409;DHT22;8463;48.094;7.970;2022-10-16T07:36:07;15.10;74.30
2409;DHT22;8463;48.094;7.970;2022-10-16T07:38:33;15.00;74.30
2409;DHT22;8463;48.094;7.970;2022-10-16T07:41:04;15.10;74.10
2409;DHT22;8463;48.094;7.970;2022-10-16T07:43:30;15.10;74.10
2409;DHT22;8463;48.094;7.970;2022-10-16T07:45:56;15.20;74.20
2409;DHT22;8463;48.094;7.970;2022-10-16T07:48:22;15.20;74.60
2409;DHT22;8463;48.094;7.970;2022-10-16T07:50:48;15.20;74.60
2409;DHT22;8463;48.094;7.970;2022-10-16T07:53:14;15.30;74.30
2409;DHT22;8463;48.094;7.970;2022-10-16T07:55:41;15.30;74.20
2409;DHT22;8463;48.094;7.970;2022-10-16T07:58:07;15.30;74.60
2409;DHT22;8463;48.094;7.970;2022-10-16T08:00:33;15.40;74.90
2409;DHT22;8463;48.094;7.970;2022-10-16T08:02:59;15.40;74.90
2409;DHT22;8463;48.094;7.970;2022-10-16T08:05:28;15.50;74.00
2409;DHT22;8463;48.094;7.970;2022-10-16T08:10:23;15.70;73.80
2409;DHT22;8463;48.094;7.970;2022-10-16T08:12:48;15.70;74.30
2409;DHT22;8463;48.094;7.970;2022-10-16T08:15:14;15.80;73.90
2409;DHT22;8463;48.094;7.970;2022-10-16T08:17:40;15.70;73.50
2409;DHT22;8463;48.094;7.970;2022-10-16T08:20:06;15.80;73.90
2409;DHT22;8463;48.094;7.970;2022-10-16T08:22:32;15.90;73.90
2409;DHT22;8463;48.094;7.970;2022-10-16T08:24:57;16.00;73.80
2409;DHT22;8463;48.094;7.970;2022-10-16T08:27:23;16.00;73.80
2409;DHT22;8463;48.094;7.970;2022-10-16T08:29:49;16.10;73.80
2409;DHT22;8463;48.094;7.970;2022-10-16T08:32:15;16.20;74.20
2409;DHT22;8463;48.094;7.970;2022-10-16T08:34:40;16.20;74.00
2409;DHT22;8463;48.094;7.970;2022-10-16T08:37:06;16.20;74.30
2409;DHT22;8463;48.094;7.970;2022-10-16T08:39:33;16.30;73.00
2409;DHT22;8463;48.094;7.970;2022-10-16T08:49:01;16.40;73.50
2409;DHT22;8463;48.094;7.970;2022-10-16T08:50:55;16.50;73.90
2409;DHT22;8463;48.094;7.970;2022-10-16T08:53:27;16.60;72.50
2409;DHT22;8463;48.094;7.970;2022-10-16T08:55:54;16.60;73.10
2409;DHT22;8463;48.094;7.970;2022-10-16T08:58:22;16.70;72.20
2409;DHT22;8463;48.094;7.970;2022-10-16T09:01:00;16.70;72.10
2409;DHT22;8463;48.094;7.970;2022-10-16T09:03:59;16.80;71.90
2409;DHT22;8463;48.094;7.970;2022-10-16T09:06:38;16.80;71.80
2409;DHT22;8463;48.094;7.970;2022-10-16T09:22:41;17.30;72.90
2409;DHT22;8463;48.094;7.970;2022-10-16T09:25:13;17.30;73.30
2409;DHT22;8463;48.094;7.970;2022-10-16T09:27:40;17.40;71.70
2409;DHT22;8463;48.094;7.970;2022-10-16T09:30:32;17.50;71.70
2409;DHT22;8463;48.094;7.970;2022-10-16T09:32:58;17.60;71.10
2409;DHT22;8463;48.094;7.970;2022-10-16T09:35:33;17.60;71.50
2409;DHT22;8463;48.094;7.970;2022-10-16T09:38:00;18.00;71.60
2409;DHT22;8463;48.094;7.970;2022-10-16T09:40:35;18.00;72.10
2409;DHT22;8463;48.094;7.970;2022-10-16T09:43:25;18.40;70.10
2409;DHT22;8463;48.094;7.970;2022-10-16T09:45:58;18.90;66.20
2409;DHT22;8463;48.094;7.970;2022-10-16T09:48:27;19.00;66.50
2409;DHT22;8463;48.094;7.970;2022-10-16T09:51:02;19.20;64.80
2409;DHT22;8463;48.094;7.970;2022-10-16T09:53:43;19.50;65.70
2409;DHT22;8463;48.094;7.970;2022-10-16T09:56:26;19.70;61.00
2409;DHT22;8463;48.094;7.970;2022-10-16T09:58:54;20.20;61.00
2409;DHT22;8463;48.094;7.970;2022-10-16T10:01:22;20.10;61.40
2409;DHT22;8463;48.094;7.970;2022-10-16T10:03:49;20.30;57.30
2409;DHT22;8463;48.094;7.970;2022-10-16T10:06:21;20.40;53.00
2409;DHT22;8463;48.094;7.970;2022-10-16T10:09:06;20.40;53.90
2409;DHT22;8463;48.094;7.970;2022-10-16T10:11:44;20.40;52.90
2409;DHT22;8463;48.094;7.970;2022-10-16T10:14:35;20.40;38.60
2409;DHT22;8463;48.094;7.970;2022-10-16T10:17:23;20.50;30.40
2409;DHT22;8463;48.094;7.970;2022-10-16T10:22:23;20.90;31.50
2409;DHT22;8463;48.094;7.970;2022-10-16T10:30:34;20.90;28.10
2409;DHT22;8463;48.094;7.970;2022-10-16T10:46:57;21.50;19.90
2409;DHT22;8463;48.094;7.970;2022-10-16T11:01:12;21.90;24.10
2409;DHT22;8463;48.094;7.970;2022-10-16T11:07:11;21.90;20.80
2409;DHT22;8463;48.094;7.970;2022-10-16T11:09:42;21.90;22.80
2409;DHT22;8463;48.094;7.970;2022-10-16T11:12:25;21.90;23.20
2409;DHT22;8463;48.094;7.970;2022-10-16T11:15:22;22.00;20.90
2409;DHT22;8463;48.094;7.970;2022-10-16T11:17:59;22.00;23.90
2409;DHT22;8463;48.094;7.970;2022-10-16T11:20:31;22.00;23.00
2409;DHT22;8463;48.094;7.970;2022-10-16T11:23:18;22.00;22.00
2409;DHT22;8463;48.094;7.970;2022-10-16T11:25:47;22.00;25.50
2409;DHT22;8463;48.094;7.970;2022-10-16T11:28:16;22.00;20.60
2409;DHT22;8463;48.094;7.970;2022-10-16T11:30:53;22.00;21.10
2409;DHT22;8463;48.094;7.970;2022-10-16T11:33:36;22.10;20.00
2409;DHT22;8463;48.094;7.970;2022-10-16T11:36:13;22.20;22.90
2409;DHT22;8463;48.094;7.970;2022-10-16T11:39:25;22.30;26.60
2409;DHT22;8463;48.094;7.970;2022-10-16T11:41:53;22.30;26.60
2409;DHT22;8463;48.094;7.970;2022-10-16T11:49:31;22.60;22.60
2409;DHT22;8463;48.094;7.970;2022-10-16T11:52:05;22.70;22.10
2409;DHT22;8463;48.094;7.970;2022-10-16T11:54:39;22.80;20.10
2409;DHT22;8463;48.094;7.970;2022-10-16T11:57:38;22.90;18.30
2409;DHT22;8463;48.094;7.970;2022-10-16T12:00:06;22.90;18.90
2409;DHT22;8463;48.094;7.970;2022-10-16T12:08:11;23.10;12.90
2409;DHT22;8463;48.094;7.970;2022-10-16T12:10:39;23.10;13.70
2409;DHT22;8463;48.094;7.970;2022-10-16T12:13:38;23.10;15.00
2409;DHT22;8463;48.094;7.970;2022-10-16T12:18:38;23.10;17.00
2409;DHT22;8463;48.094;7.970;2022-10-16T12:21:04;23.10;16.40
2409;DHT22;8463;48.094;7.970;2022-10-16T12:23:33;23.10;15.40
2409;DHT22;8463;48.094;7.970;2022-10-16T12:26:02;23.10;16.70
2409;DHT22;8463;48.094;7.970;2022-10-16T12:28:31;23.10;17.40
2409;DHT22;8463;48.094;7.970;2022-10-16T12:31:08;23.20;19.10
2409;DHT22;8463;48.094;7.970;2022-10-16T12:33:52;23.20;19.10
2409;DHT22;8463;48.094;7.970;2022-10-16T12:36:33;23.20;19.80
2409;DHT22;8463;48.094;7.970;2022-10-16T12:39:00;23.30;17.60
2409;DHT22;8463;48.094;7.970;2022-10-16T12:41:33;23.40;16.70
2409;DHT22;8463;48.094;7.970;2022-10-16T12:44:00;23.50;16.10
2409;DHT22;8463;48.094;7.970;2022-10-16T12:49:20;23.90;18.70
2409;DHT22;8463;48.094;7.970;2022-10-16T12:51:46;24.10;17.80
2409;DHT22;8463;48.094;7.970;2022-10-16T12:59:43;24.00;16.30
2409;DHT22;8463;48.094;7.970;2022-10-16T13:05:53;24.00;16.10
2409;DHT22;8463;48.094;7.970;2022-10-16T13:08:44;24.00;16.80
2409;DHT22;8463;48.094;7.970;2022-10-16T13:20:12;25.10;7.70
2409;DHT22;8463;48.094;7.970;2022-10-16T13:25:24;25.40;6.70
2409;DHT22;8463;48.094;7.970;2022-10-16T13:27:59;25.60;3.20
2409;DHT22;8463;48.094;7.970;2022-10-16T13:35:53;25.50;2.20
2409;DHT22;8463;48.094;7.970;2022-10-16T13:38:21;25.60;3.00
2409;DHT22;8463;48.094;7.970;2022-10-16T13:46:03;26.20;1.00
2409;DHT22;8463;48.094;7.970;2022-10-16T13:48:31;26.30;1.00
2409;DHT22;8463;48.094;7.970;2022-10-16T13:51:05;26.30;1.20
2409;DHT22;8463;48.094;7.970;2022-10-16T13:53:33;26.30;1.00
2409;DHT22;8463;48.094;7.970;2022-10-16T13:55:59;26.40;1.00
2409;DHT22;8463;48.094;7.970;2022-10-16T13:58:26;26.50;1.00
2409;DHT22;8463;48.094;7.970;2022-10-16T14:01:00;26.60;1.00
2409;DHT22;8463;48.094;7.970;2022-10-16T14:03:28;26.50;1.00
2409;DHT22;8463;48.094;7.970;2022-10-16T14:06:00;26.40;1.00
2409;DHT22;8463;48.094;7.970;2022-10-16T14:08:28;26.40;1.00
2409;DHT22;8463;48.094;7.970;2022-10-16T14:10:58;26.40;1.00
2409;DHT22;8463;48.094;7.970;2022-10-16T14:13:45;26.40;1.00
2409;DHT22;8463;48.094;7.970;2022-10-16T14:16:17;26.40;1.20
2409;DHT22;8463;48.094;7.970;2022-10-16T14:18:46;26.40;1.70
2409;DHT22;8463;48.094;7.970;2022-10-16T14:21:16;26.20;4.00
2409;DHT22;8463;48.094;7.970;2022-10-16T14:23:42;26.10;4.50
2409;DHT22;8463;48.094;7.970;2022-10-16T14:28:37;25.80;5.40
2409;DHT22;8463;48.094;7.970;2022-10-16T14:33:51;25.60;5.60
2409;DHT22;8463;48.094;7.970;2022-10-16T14:36:17;25.50;5.10
2409;DHT22;8463;48.094;7.970;2022-10-16T14:38:58;25.20;8.80
2409;DHT22;8463;48.094;7.970;2022-10-16T14:41:25;24.90;9.90
2409;DHT22;8463;48.094;7.970;2022-10-16T14:43:54;24.30;11.50
2409;DHT22;8463;48.094;7.970;2022-10-16T14:46:22;23.90;13.60
2409;DHT22;8463;48.094;7.970;2022-10-16T14:48:54;23.60;14.80
2409;DHT22;8463;48.094;7.970;2022-10-16T14:51:22;23.60;16.30
2409;DHT22;8463;48.094;7.970;2022-10-16T14:53:48;23.40;18.10
2409;DHT22;8463;48.094;7.970;2022-10-16T14:56:21;23.30;19.10
2409;DHT22;8463;48.094;7.970;2022-10-16T15:01:13;22.90;17.70
2409;DHT22;8463;48.094;7.970;2022-10-16T15:03:39;22.80;19.00
2409;DHT22;8463;48.094;7.970;2022-10-16T15:06:13;22.90;17.70
2409;DHT22;8463;48.094;7.970;2022-10-16T15:08:40;22.90;18.10
2409;DHT22;8463;48.094;7.970;2022-10-16T15:11:12;22.90;20.20
2409;DHT22;8463;48.094;7.970;2022-10-16T15:13:38;23.00;20.30
2409;DHT22;8463;48.094;7.970;2022-10-16T15:16:04;22.90;20.40
2409;DHT22;8463;48.094;7.970;2022-10-16T15:20:56;22.90;20.50
2409;DHT22;8463;48.094;7.970;2022-10-16T15:23:22;22.90;20.30
2409;DHT22;8463;48.094;7.970;2022-10-16T15:25:52;22.80;19.60
2409;DHT22;8463;48.094;7.970;2022-10-16T15:28:20;22.60;21.20
2409;DHT22;8463;48.094;7.970;2022-10-16T15:30:46;22.40;22.50
2409;DHT22;8463;48.094;7.970;2022-10-16T15:33:16;22.40;23.10
2409;DHT22;8463;48.094;7.970;2022-10-16T15:35:45;22.30;23.10
2409;DHT22;8463;48.094;7.970;2022-10-16T15:38:12;22.30;23.50
2409;DHT22;8463;48.094;7.970;2022-10-16T15:40:39;22.00;25.30
2409;DHT22;8463;48.094;7.970;2022-10-16T15:43:05;22.00;24.80
2409;DHT22;8463;48.094;7.970;2022-10-16T15:47:56;22.00;25.50
2409;DHT22;8463;48.094;7.970;2022-10-16T15:50:22;22.00;25.00
2409;DHT22;8463;48.094;7.970;2022-10-16T15:52:50;21.90;24.70
2409;DHT22;8463;48.094;7.970;2022-10-16T15:55:15;21.70;24.90
2409;DHT22;8463;48.094;7.970;2022-10-16T15:57:42;21.70;25.30
2409;DHT22;8463;48.094;7.970;2022-10-16T16:00:19;21.50;26.00
2409;DHT22;8463;48.094;7.970;2022-10-16T16:02:52;21.50;26.30
2409;DHT22;8463;48.094;7.970;2022-10-16T16:05:19;21.40;26.20
2409;DHT22;8463;48.094;7.970;2022-10-16T16:07:45;21.40;26.30
2409;DHT22;8463;48.094;7.970;2022-10-16T16:10:12;21.30;26.80
2409;DHT22;8463;48.094;7.970;2022-10-16T16:12:38;21.30;27.00
2409;DHT22;8463;48.094;7.970;2022-10-16T16:15:08;21.20;28.00
2409;DHT22;8463;48.094;7.970;2022-10-16T16:17:35;21.10;28.10
2409;DHT22;8463;48.094;7.970;2022-10-16T16:22:27;21.00;29.70
2409;DHT22;8463;48.094;7.970;2022-10-16T16:24:53;20.80;30.80
2409;DHT22;8463;48.094;7.970;2022-10-16T16:27:19;20.80;32.00
2409;DHT22;8463;48.094;7.970;2022-10-16T16:29:49;20.80;33.40
2409;DHT22;8463;48.094;7.970;2022-10-16T16:32:15;20.60;33.20
2409;DHT22;8463;48.094;7.970;2022-10-16T16:34:41;20.60;33.60
2409;DHT22;8463;48.094;7.970;2022-10-16T16:37:07;20.50;33.90
2409;DHT22;8463;48.094;7.970;2022-10-16T16:39:32;20.50;33.90
2409;DHT22;8463;48.094;7.970;2022-10-16T16:41:58;20.40;33.80
2409;DHT22;8463;48.094;7.970;2022-10-16T16:44:24;20.30;34.40
2409;DHT22;8463;48.094;7.970;2022-10-16T16:46:50;20.20;35.20
2409;DHT22;8463;48.094;7.970;2022-10-16T16:49:15;20.00;37.40
2409;DHT22;8463;48.094;7.970;2022-10-16T16:51:41;19.90;38.40
2409;DHT22;8463;48.094;7.970;2022-10-16T16:54:08;19.80;39.00
2409;DHT22;8463;48.094;7.970;2022-10-16T16:56:34;19.70;39.00
2409;DHT22;8463;48.094;7.970;2022-10-16T16:59:00;19.60;40.30
2409;DHT22;8463;48.094;7.970;2022-10-16T17:01:27;19.50;40.50
2409;DHT22;8463;48.094;7.970;2022-10-16T17:03:54;19.30;42.10
2409;DHT22;8463;48.094;7.970;2022-10-16T17:06:25;19.30;42.10
2409;DHT22;8463;48.094;7.970;2022-10-16T17:08:52;19.20;43.40
2409;DHT22;8463;48.094;7.970;2022-10-16T17:11:23;19.20;43.10
2409;DHT22;8463;48.094;7.970;2022-10-16T17:13:49;19.00;44.10
2409;DHT22;8463;48.094;7.970;2022-10-16T17:16:16;19.00;44.20
2409;DHT22;8463;48.094;7.970;2022-10-16T17:18:42;18.80;43.60
2409;DHT22;8463;48.094;7.970;2022-10-16T17:21:09;18.80;44.80
2409;DHT22;8463;48.094;7.970;2022-10-16T17:23:36;18.70;44.30
2409;DHT22;8463;48.094;7.970;2022-10-16T17:26:07;18.60;44.60
2409;DHT22;8463;48.094;7.970;2022-10-16T17:28:33;18.60;45.20
2409;DHT22;8463;48.094;7.970;2022-10-16T17:31:10;18.50;45.40
2409;DHT22;8463;48.094;7.970;2022-10-16T17:33:36;18.50;45.80
2409;DHT22;8463;48.094;7.970;2022-10-16T17:36:02;18.50;45.60
2409;DHT22;8463;48.094;7.970;2022-10-16T17:38:28;18.40;46.00
2409;DHT22;8463;48.094;7.970;2022-10-16T17:40:53;18.40;45.90
2409;DHT22;8463;48.094;7.970;2022-10-16T17:43:19;18.40;45.80
2409;DHT22;8463;48.094;7.970;2022-10-16T17:45:45;18.40;46.00
2409;DHT22;8463;48.094;7.970;2022-10-16T17:48:10;18.40;46.60
2409;DHT22;8463;48.094;7.970;2022-10-16T17:50:40;18.20;46.00
2409;DHT22;8463;48.094;7.970;2022-10-16T17:53:06;18.30;47.60
2409;DHT22;8463;48.094;7.970;2022-10-16T17:55:40;18.30;46.70
2409;DHT22;8463;48.094;7.970;2022-10-16T17:58:06;18.30;45.60
2409;DHT22;8463;48.094;7.970;2022-10-16T18:00:32;18.30;45.20
2409;DHT22;8463;48.094;7.970;2022-10-16T18:02:58;18.10;44.90
2409;DHT22;8463;48.094;7.970;2022-10-16T18:05:24;18.00;46.60
2409;DHT22;8463;48.094;7.970;2022-10-16T18:07:50;17.90;47.30
2409;DHT22;8463;48.094;7.970;2022-10-16T18:10:15;17.90;47.10
2409;DHT22;8463;48.094;7.970;2022-10-16T18:12:41;17.80;47.60
2409;DHT22;8463;48.094;7.970;2022-10-16T18:15:07;17.80;47.80
2409;DHT22;8463;48.094;7.970;2022-10-16T18:17:34;17.80;46.90
2409;DHT22;8463;48.094;7.970;2022-10-16T18:20:06;17.80;47.10
2409;DHT22;8463;48.094;7.970;2022-10-16T18:22:33;17.80;46.90
2409;DHT22;8463;48.094;7.970;2022-10-16T18:25:03;17.80;46.60
2409;DHT22;8463;48.094;7.970;2022-10-16T18:27:30;17.50;47.20
2409;DHT22;8463;48.094;7.970;2022-10-16T18:29:56;17.50;47.70
2409;DHT22;8463;48.094;7.970;2022-10-16T18:32:23;17.50;48.30
2409;DHT22;8463;48.094;7.970;2022-10-16T18:34:48;17.40;48.50
2409;DHT22;8463;48.094;7.970;2022-10-16T18:37:14;17.40;49.50